sensor_id;sensor_type;location;lat;lon;timestamp;P1;durP1;ratioP1;P2;durP2;ratioP2
29380;SDS011;16364;52.490;13.326;2022-10-31T00:00:28;21.80;;;15.83;;
29380;SDS011;16364;52.490;13.326;2022-10-31T00:02:53;20.80;;;16.17;;
29380;SDS011;16364;52.490;13.326;2022-10-31T00:05:18;20.13;;;16.50;;
29380;SDS011;16364;52.490;13.326;2022-10-31T00:07:44;17.47;;;15.40;;
29380;SDS011;16364;52.490;13.326;2022-10-31T00:10:09;24.87;;;15.93;;
29380;SDS011;16364;52.490;13.326;2022-10-31T00:12:34;25.57;;;17.77;;
29380;SDS011;16364;52.490;13.326;2022-10-31T00:14:59;22.73;;;18.20;;
29380;SDS011;16364;52.490;13.326;2022-10-31T00:17:24;22.57;;;15.67;;
29380;SDS011;16364;52.490;13.326;2022-10-31T00:19:49;21.10;;;16.23;;
29380;SDS011;16364;52.490;13.326;2022-10-31T00:22:15;19.40;;;15.70;;
29380;SDS011;16364;52.490;13.326;2022-10-31T00:24:40;19.73;;;14.93;;
29380;SDS011;16364;52.490;13.326;2022-10-31T00:27:05;19.30;;;14.13;;
29380;SDS011;16364;52.490;13.326;2022-10-31T00:29:30;24.17;;;16.83;;
29380;SDS011;16364;52.490;13.326;2022-10-31T00:31:55;22.10;;;17.10;;
29380;SDS011;16364;52.490;13.326;2022-10-31T00:34:21;21.03;;;16.00;;
29380;SDS011;16364;52.490;13.326;2022-10-31T00:36:46;21.27;;;16.70;;
29380;SDS011;16364;52.490;13.326;2022-10-31T00:39:11;19.90;;;14.70;;
29380;SDS011;16364;52.490;13.326;2022-10-31T00:41:36;22.77;;;16.43;;
29380;SDS011;16364;52.490;13.326;2022-10-31T00:44:01;20.70;;;15.90;;
29380;SDS011;16364;52.490;13.326;2022-10-31T00:46:26;20.60;;;15.57;;
29380;SDS011;16364;52.490;13.326;2022-10-31T00:48:52;22.17;;;17.43;;
29380;SDS011;16364;52.490;13.326;2022-10-31T00:51:17;19.03;;;17.17;;
29380;SDS011;16364;52.490;13.326;2022-10-31T00:53:42;23.33;;;16.37;;
29380;SDS011;16364;52.490;13.326;2022-10-31T00:56:07;17.70;;;15.87;;
29380;SDS011;16364;52.490;13.326;2022-10-31T00:58:32;21.87;;;17.33;;
29380;SDS011;16364;52.490;13.326;2022-10-31T01:00:58;20.63;;;16.30;;
29380;SDS011;16364;52.490;13.326;2022-10-31T01:03:23;23.10;;;15.20;;
29380;SDS011;16364;52.490;13.326;2022-10-31T01:05:59;19.97;;;14.30;;
29380;SDS011;16364;52.490;13.326;2022-10-31T01:08:24;26.10;;;17.13;;
29380;SDS011;16364;52.490;13.326;2022-10-31T01:11:11;21.97;;;17.83;;
29380;SDS011;16364;52.490;13.326;2022-10-31T01:13:35;19.97;;;16.83;;
29380;SDS011;16364;52.490;13.326;2022-10-31T01:16:01;28.37;;;18.27;;
29380;SDS011;16364;52.490;13.326;2022-10-31T01:18:27;20.50;;;16.23;;
29380;SDS011;16364;52.490;13.326;2022-10-31T01:20:59;23.17;;;17.00;;
29380;SDS011;16364;52.490;13.326;2022-10-31T01:23:24;18.67;;;15.17;;
29380;SDS011;16364;52.490;13.326;2022-10-31T01:25:49;20.83;;;17.43;;
29380;SDS011;16364;52.490;13.326;2022-10-31T01:28:15;20.77;;;15.73;;
29380;SDS011;16364;52.490;13.326;2022-10-31T01:30:40;21.17;;;15.13;;
29380;SDS011;16364;52.490;13.326;2022-10-31T01:33:05;16.00;;;14.53;;
29380;SDS011;16364;52.490;13.326;2022-10-31T01:35:30;17.80;;;14.30;;
29380;SDS011;16364;52.490;13.326;2022-10-31T01:37:55;17.00;;;14.00;;
29380;SDS011;16364;52.490;13.326;2022-10-31T01:40:20;21.30;;;15.93;;
29380;SDS011;16364;52.490;13.326;2022-10-31T01:42:46;21.00;;;17.23;;
29380;SDS011;16364;52.490;13.326;2022-10-31T01:45:19;22.47;;;16.17;;
29380;SDS011;16364;52.490;13.326;2022-10-31T01:47:45;18.30;;;14.03;;
29380;SDS011;16364;52.490;13.326;2022-10-31T01:50:13;17.30;;;13.60;;
29380;SDS011;16364;52.490;13.326;2022-10-31T01:52:44;17.60;;;15.07;;
29380;SDS011;16364;52.490;13.326;2022-10-31T01:55:12;21.90;;;15.90;;
29380;SDS011;16364;52.490;13.326;2022-10-31T01:57:39;22.73;;;17.70;;
29380;SDS011;16364;52.490;13.326;2022-10-31T02:00:06;18.23;;;16.30;;
29380;SDS011;16364;52.490;13.326;2022-10-31T02:02:32;21.30;;;14.50;;
29380;SDS011;16364;52.490;13.326;2022-10-31T02:04:57;19.13;;;14.00;;
29380;SDS011;16364;52.490;13.326;2022-10-31T02:07:25;24.30;;;16.43;;
29380;SDS011;16364;52.490;13.326;2022-10-31T02:09:51;18.90;;;14.80;;
29380;SDS011;16364;52.490;13.326;2022-10-31T02:12:18;18.63;;;14.30;;
29380;SDS011;16364;52.490;13.326;2022-10-31T02:14:43;21.23;;;14.23;;
29380;SDS011;16364;52.490;13.326;2022-10-31T02:17:09;16.30;;;14.63;;
29380;SDS011;16364;52.490;13.326;2022-10-31T02:22:13;16.47;;;14.33;;
29380;SDS011;16364;52.490;13.326;2022-10-31T02:27:31;17.53;;;14.80;;
29380;SDS011;16364;52.490;13.326;2022-10-31T02:30:14;18.90;;;14.17;;
29380;SDS011;16364;52.490;13.326;2022-10-31T02:43:27;19.73;;;14.90;;
29380;SDS011;16364;52.490;13.326;2022-10-31T02:48:20;26.30;;;16.73;;
29380;SDS011;16364;52.490;13.326;2022-10-31T02:50:57;20.30;;;15.00;;
29380;SDS011;16364;52.490;13.326;2022-10-31T02:53:24;20.00;;;15.50;;
29380;SDS011;16364;52.490;13.326;2022-10-31T02:55:51;27.57;;;17.87;;
29380;SDS011;16364;52.490;13.326;2022-10-31T02:58:20;25.63;;;15.07;;
29380;SDS011;16364;52.490;13.326;2022-10-31T03:06:17;15.83;;;13.90;;
29380;SDS011;16364;52.490;13.326;2022-10-31T03:11:23;17.60;;;14.10;;
29380;SDS011;16364;52.490;13.326;2022-10-31T03:13:51;19.30;;;15.37;;
29380;SDS011;16364;52.490;13.326;2022-10-31T03:21:20;18.47;;;14.07;;
29380;SDS011;16364;52.490;13.326;2022-10-31T03:23:47;20.70;;;14.93;;
29380;SDS011;16364;52.490;13.326;2022-10-31T03:26:13;20.87;;;13.70;;
29380;SDS011;16364;52.490;13.326;2022-10-31T03:29:00;20.33;;;14.43;;
29380;SDS011;16364;52.490;13.326;2022-10-31T03:31:28;19.80;;;13.83;;
29380;SDS011;16364;52.490;13.326;2022-10-31T03:33:54;16.70;;;13.70;;
29380;SDS011;16364;52.490;13.326;2022-10-31T03:36:21;15.00;;;12.73;;
29380;SDS011;16364;52.490;13.326;2022-10-31T03:38:47;19.13;;;12.87;;
29380;SDS011;16364;52.490;13.326;2022-10-31T03:41:14;18.20;;;15.97;;
29380;SDS011;16364;52.490;13.326;2022-10-31T03:43:43;23.20;;;17.43;;
29380;SDS011;16364;52.490;13.326;2022-10-31T03:46:11;24.73;;;14.40;;
29380;SDS011;16364;52.490;13.326;2022-10-31T03:48:36;22.40;;;15.17;;
29380;SDS011;16364;52.490;13.326;2022-10-31T03:51:07;17.10;;;13.23;;
29380;SDS011;16364;52.490;13.326;2022-10-31T03:53:34;15.37;;;12.63;;
29380;SDS011;16364;52.490;13.326;2022-10-31T03:56:07;17.73;;;13.03;;
29380;SDS011;16364;52.490;13.326;2022-10-31T04:01:18;17.77;;;12.43;;
29380;SDS011;16364;52.490;13.326;2022-10-31T04:03:44;19.83;;;14.03;;
29380;SDS011;16364;52.490;13.326;2022-10-31T04:06:10;18.63;;;13.37;;
29380;SDS011;16364;52.490;13.326;2022-10-31T04:08:39;24.53;;;13.67;;
29380;SDS011;16364;52.490;13.326;2022-10-31T04:11:05;18.93;;;13.47;;
29380;SDS011;16364;52.490;13.326;2022-10-31T04:13:31;21.13;;;13.63;;
29380;SDS011;16364;52.490;13.326;2022-10-31T04:15:58;15.90;;;12.40;;
29380;SDS011;16364;52.490;13.326;2022-10-31T04:18:23;18.50;;;12.63;;
29380;SDS011;16364;52.490;13.326;2022-10-31T04:20:49;17.13;;;12.93;;
29380;SDS011;16364;52.490;13.326;2022-10-31T04:23:24;17.50;;;13.50;;
29380;SDS011;16364;52.490;13.326;2022-10-31T04:25:49;18.97;;;15.10;;
29380;SDS011;16364;52.490;13.326;2022-10-31T04:28:14;19.97;;;14.90;;
29380;SDS011;16364;52.490;13.326;2022-10-31T04:30:40;18.23;;;13.50;;
29380;SDS011;16364;52.490;13.326;2022-10-31T04:33:05;24.60;;;13.90;;
29380;SDS011;16364;52.490;13.326;2022-10-31T04:35:30;17.93;;;14.53;;
29380;SDS011;16364;52.490;13.326;2022-10-31T04:37:55;20.73;;;13.00;;
29380;SDS011;16364;52.490;13.326;2022-10-31T04:40:20;24.63;;;16.27;;
29380;SDS011;16364;52.490;13.326;2022-10-31T04:42:45;39.10;;;23.17;;
29380;SDS011;16364;52.490;13.326;2022-10-31T04:45:11;33.10;;;20.60;;
29380;SDS011;16364;52.490;13.326;2022-10-31T04:47:36;19.63;;;15.23;;
29380;SDS011;16364;52.490;13.326;2022-10-31T04:50:01;22.20;;;14.27;;
29380;SDS011;16364;52.490;13.326;2022-10-31T04:52:26;19.70;;;12.60;;
29380;SDS011;16364;52.490;13.326;2022-10-31T04:54:52;15.00;;;11.80;;
29380;SDS011;16364;52.490;13.326;2022-10-31T04:57:17;14.57;;;12.20;;
29380;SDS011;16364;52.490;13.326;2022-10-31T04:59:42;19.03;;;12.37;;
29380;SDS011;16364;52.490;13.326;2022-10-31T05:02:07;16.93;;;12.23;;
29380;SDS011;16364;52.490;13.326;2022-10-31T05:04:32;18.77;;;13.87;;
29380;SDS011;16364;52.490;13.326;2022-10-31T05:06:57;16.67;;;13.40;;
29380;SDS011;16364;52.490;13.326;2022-10-31T05:09:23;16.23;;;12.00;;
29380;SDS011;16364;52.490;13.326;2022-10-31T05:11:48;16.13;;;13.05;;
29380;SDS011;16364;52.490;13.326;2022-10-31T05:14:13;17.53;;;13.57;;
29380;SDS011;16364;52.490;13.326;2022-10-31T05:16:38;13.80;;;12.17;;
29380;SDS011;16364;52.490;13.326;2022-10-31T05:19:03;20.27;;;12.47;;
29380;SDS011;16364;52.490;13.326;2022-10-31T05:21:28;18.93;;;12.10;;
29380;SDS011;16364;52.490;13.326;2022-10-31T05:23:54;22.07;;;14.97;;
29380;SDS011;16364;52.490;13.326;2022-10-31T05:26:19;24.57;;;14.70;;
29380;SDS011;16364;52.490;13.326;2022-10-31T05:28:44;20.10;;;15.73;;
29380;SDS011;16364;52.490;13.326;2022-10-31T05:31:09;20.07;;;12.13;;
29380;SDS011;16364;52.490;13.326;2022-10-31T05:33:34;18.10;;;12.50;;
29380;SDS011;16364;52.490;13.326;2022-10-31T05:36:00;20.73;;;12.97;;
29380;SDS011;16364;52.490;13.326;2022-10-31T05:38:25;15.83;;;12.30;;
29380;SDS011;16364;52.490;13.326;2022-10-31T05:40:53;13.70;;;11.17;;
29380;SDS011;16364;52.490;13.326;2022-10-31T05:43:18;18.70;;;12.20;;
29380;SDS011;16364;52.490;13.326;2022-10-31T05:45:44;17.80;;;12.43;;
29380;SDS011;16364;52.490;13.326;2022-10-31T05:48:09;12.73;;;11.30;;
29380;SDS011;16364;52.490;13.326;2022-10-31T05:50:34;16.13;;;13.10;;
29380;SDS011;16364;52.490;13.326;2022-10-31T05:53:02;16.70;;;10.80;;
29380;SDS011;16364;52.490;13.326;2022-10-31T05:55:28;17.13;;;12.33;;
29380;SDS011;16364;52.490;13.326;2022-10-31T05:57:54;17.03;;;12.50;;
29380;SDS011;16364;52.490;13.326;2022-10-31T06:00:20;17.93;;;10.20;;
29380;SDS011;16364;52.490;13.326;2022-10-31T06:02:45;16.47;;;12.37;;
29380;SDS011;16364;52.490;13.326;2022-10-31T06:05:10;15.53;;;12.47;;
29380;SDS011;16364;52.490;13.326;2022-10-31T06:07:36;14.97;;;12.10;;
29380;SDS011;16364;52.490;13.326;2022-10-31T06:10:02;19.47;;;13.20;;
29380;SDS011;16364;52.490;13.326;2022-10-31T06:12:28;14.47;;;12.10;;
29380;SDS011;16364;52.490;13.326;2022-10-31T06:14:53;20.27;;;12.47;;
29380;SDS011;16364;52.490;13.326;2022-10-31T06:17:18;17.63;;;13.30;;
29380;SDS011;16364;52.490;13.326;2022-10-31T06:19:44;22.63;;;13.93;;
29380;SDS011;16364;52.490;13.326;2022-10-31T06:22:09;20.00;;;12.80;;
29380;SDS011;16364;52.490;13.326;2022-10-31T06:24:36;18.07;;;13.40;;
29380;SDS011;16364;52.490;13.326;2022-10-31T06:27:01;23.17;;;14.38;;
29380;SDS011;16364;52.490;13.326;2022-10-31T06:29:26;21.13;;;14.00;;
29380;SDS011;16364;52.490;13.326;2022-10-31T06:31:51;22.20;;;12.60;;
29380;SDS011;16364;52.490;13.326;2022-10-31T06:34:17;19.80;;;12.80;;
29380;SDS011;16364;52.490;13.326;2022-10-31T06:36:42;19.93;;;14.00;;
29380;SDS011;16364;52.490;13.326;2022-10-31T06:39:07;20.60;;;13.40;;
29380;SDS011;16364;52.490;13.326;2022-10-31T06:41:32;15.77;;;13.23;;
29380;SDS011;16364;52.490;13.326;2022-10-31T06:43:57;23.27;;;13.97;;
29380;SDS011;16364;52.490;13.326;2022-10-31T06:46:22;21.67;;;13.20;;
29380;SDS011;16364;52.490;13.326;2022-10-31T06:48:48;18.07;;;12.60;;
29380;SDS011;16364;52.490;13.326;2022-10-31T06:51:13;16.90;;;12.40;;
29380;SDS011;16364;52.490;13.326;2022-10-31T06:53:38;15.97;;;11.23;;
29380;SDS011;16364;52.490;13.326;2022-10-31T06:56:03;15.57;;;11.20;;
29380;SDS011;16364;52.490;13.326;2022-10-31T06:58:28;17.87;;;11.60;;
29380;SDS011;16364;52.490;13.326;2022-10-31T07:00:54;17.77;;;13.10;;
29380;SDS011;16364;52.490;13.326;2022-10-31T07:03:19;19.37;;;13.20;;
29380;SDS011;16364;52.490;13.326;2022-10-31T07:05:45;14.63;;;12.77;;
29380;SDS011;16364;52.490;13.326;2022-10-31T07:08:11;18.23;;;12.70;;
29380;SDS011;16364;52.490;13.326;2022-10-31T07:10:37;20.60;;;12.77;;
29380;SDS011;16364;52.490;13.326;2022-10-31T07:13:03;21.43;;;14.33;;
29380;SDS011;16364;52.490;13.326;2022-10-31T07:15:30;21.73;;;13.83;;
29380;SDS011;16364;52.490;13.326;2022-10-31T07:18:05;21.13;;;13.80;;
29380;SDS011;16364;52.490;13.326;2022-10-31T07:20:31;20.13;;;13.50;;
29380;SDS011;16364;52.490;13.326;2022-10-31T07:22:56;20.70;;;13.90;;
29380;SDS011;16364;52.490;13.326;2022-10-31T07:25:22;22.80;;;13.30;;
29380;SDS011;16364;52.490;13.326;2022-10-31T07:27:47;21.27;;;13.90;;
29380;SDS011;16364;52.490;13.326;2022-10-31T07:30:13;25.10;;;14.33;;
29380;SDS011;16364;52.490;13.326;2022-10-31T07:32:43;27.90;;;14.23;;
29380;SDS011;16364;52.490;13.326;2022-10-31T07:35:09;20.97;;;15.37;;
29380;SDS011;16364;52.490;13.326;2022-10-31T07:37:34;18.17;;;13.97;;
29380;SDS011;16364;52.490;13.326;2022-10-31T07:40:00;18.60;;;14.70;;
29380;SDS011;16364;52.490;13.326;2022-10-31T07:42:25;24.87;;;16.37;;
29380;SDS011;16364;52.490;13.326;2022-10-31T07:44:50;25.07;;;15.90;;
29380;SDS011;16364;52.490;13.326;2022-10-31T07:47:15;21.42;;;14.63;;
29380;SDS011;16364;52.490;13.326;2022-10-31T07:49:41;23.50;;;16.00;;
29380;SDS011;16364;52.490;13.326;2022-10-31T07:52:06;27.00;;;17.00;;
29380;SDS011;16364;52.490;13.326;2022-10-31T07:54:31;27.37;;;15.77;;
29380;SDS011;16364;52.490;13.326;2022-10-31T07:56:56;25.23;;;17.07;;
29380;SDS011;16364;52.490;13.326;2022-10-31T07:59:21;25.20;;;17.40;;
29380;SDS011;16364;52.490;13.326;2022-10-31T08:01:47;24.77;;;16.30;;
29380;SDS011;16364;52.490;13.326;2022-10-31T08:04:12;26.00;;;17.00;;
29380;SDS011;16364;52.490;13.326;2022-10-31T08:06:37;25.60;;;16.70;;
29380;SDS011;16364;52.490;13.326;2022-10-31T08:09:02;22.47;;;15.53;;
29380;SDS011;16364;52.490;13.326;2022-10-31T08:11:27;24.03;;;17.40;;
29380;SDS011;16364;52.490;13.326;2022-10-31T08:13:53;27.40;;;16.60;;
29380;SDS011;16364;52.490;13.326;2022-10-31T08:16:18;24.73;;;16.63;;
29380;SDS011;16364;52.490;13.326;2022-10-31T08:18:43;24.27;;;16.50;;
29380;SDS011;16364;52.490;13.326;2022-10-31T08:21:08;28.83;;;17.77;;
29380;SDS011;16364;52.490;13.326;2022-10-31T08:23:33;25.00;;;17.40;;
29380;SDS011;16364;52.490;13.326;2022-10-31T08:25:58;36.70;;;19.53;;
29380;SDS011;16364;52.490;13.326;2022-10-31T08:28:24;26.70;;;18.47;;
29380;SDS011;16364;52.490;13.326;2022-10-31T08:30:49;28.53;;;19.57;;
29380;SDS011;16364;52.490;13.326;2022-10-31T08:33:15;25.40;;;18.07;;
29380;SDS011;16364;52.490;13.326;2022-10-31T08:35:41;25.77;;;18.03;;
29380;SDS011;16364;52.490;13.326;2022-10-31T08:38:08;30.77;;;19.50;;
29380;SDS011;16364;52.490;13.326;2022-10-31T08:40:33;22.47;;;17.33;;
29380;SDS011;16364;52.490;13.326;2022-10-31T08:43:04;28.40;;;18.33;;
29380;SDS011;16364;52.490;13.326;2022-10-31T08:45:30;33.87;;;20.20;;
29380;SDS011;16364;52.490;13.326;2022-10-31T08:48:03;34.47;;;18.33;;
29380;SDS011;16364;52.490;13.326;2022-10-31T08:50:28;31.53;;;17.67;;
29380;SDS011;16364;52.490;13.326;2022-10-31T08:52:59;26.47;;;18.90;;
29380;SDS011;16364;52.490;13.326;2022-10-31T08:55:24;28.27;;;18.33;;
29380;SDS011;16364;52.490;13.326;2022-10-31T08:57:53;24.30;;;16.97;;
29380;SDS011;16364;52.490;13.326;2022-10-31T09:00:19;29.47;;;20.53;;
29380;SDS011;16364;52.490;13.326;2022-10-31T09:02:44;26.80;;;18.07;;
29380;SDS011;16364;52.490;13.326;2022-10-31T09:05:09;30.27;;;20.87;;
29380;SDS011;16364;52.490;13.326;2022-10-31T09:07:34;36.93;;;20.50;;
29380;SDS011;16364;52.490;13.326;2022-10-31T09:09:59;31.03;;;21.20;;
29380;SDS011;16364;52.490;13.326;2022-10-31T09:12:24;25.37;;;18.07;;
29380;SDS011;16364;52.490;13.326;2022-10-31T09:14:50;28.53;;;20.70;;
29380;SDS011;16364;52.490;13.326;2022-10-31T09:17:15;33.00;;;21.50;;
29380;SDS011;16364;52.490;13.326;2022-10-31T09:19:40;36.97;;;21.00;;
29380;SDS011;16364;52.490;13.326;2022-10-31T09:22:06;32.73;;;22.77;;
29380;SDS011;16364;52.490;13.326;2022-10-31T09:24:31;28.80;;;18.70;;
29380;SDS011;16364;52.490;13.326;2022-10-31T09:26:56;29.17;;;21.17;;
29380;SDS011;16364;52.490;13.326;2022-10-31T09:29:23;33.47;;;21.03;;
29380;SDS011;16364;52.490;13.326;2022-10-31T09:31:48;36.40;;;22.63;;
29380;SDS011;16364;52.490;13.326;2022-10-31T09:34:13;28.40;;;19.83;;
29380;SDS011;16364;52.490;13.326;2022-10-31T09:36:38;29.20;;;22.03;;
29380;SDS011;16364;52.490;13.326;2022-10-31T09:39:03;32.43;;;20.47;;
29380;SDS011;16364;52.490;13.326;2022-10-31T09:41:33;31.47;;;18.80;;
29380;SDS011;16364;52.490;13.326;2022-10-31T09:44:06;31.20;;;20.90;;
29380;SDS011;16364;52.490;13.326;2022-10-31T09:46:44;33.47;;;19.07;;
29380;SDS011;16364;52.490;13.326;2022-10-31T09:51:51;32.17;;;21.47;;
29380;SDS011;16364;52.490;13.326;2022-10-31T09:54:26;30.17;;;20.27;;
29380;SDS011;16364;52.490;13.326;2022-10-31T09:56:52;31.60;;;21.20;;
29380;SDS011;16364;52.490;13.326;2022-10-31T09:59:24;33.07;;;20.63;;
29380;SDS011;16364;52.490;13.326;2022-10-31T10:02:37;27.30;;;19.13;;
29380;SDS011;16364;52.490;13.326;2022-10-31T10:04:51;29.13;;;18.73;;
29380;SDS011;16364;52.490;13.326;2022-10-31T10:07:25;31.50;;;21.10;;
29380;SDS011;16364;52.490;13.326;2022-10-31T10:09:55;30.60;;;21.80;;
29380;SDS011;16364;52.490;13.326;2022-10-31T10:15:09;34.87;;;21.80;;
29380;SDS011;16364;52.490;13.326;2022-10-31T10:22:50;27.10;;;18.40;;
29380;SDS011;16364;52.490;13.326;2022-10-31T10:25:24;29.77;;;19.03;;
29380;SDS011;16364;52.490;13.326;2022-10-31T10:30:22;31.00;;;20.67;;
29380;SDS011;16364;52.490;13.326;2022-10-31T10:33:30;27.83;;;19.07;;
29380;SDS011;16364;52.490;13.326;2022-10-31T10:40:32;29.00;;;19.73;;
29380;SDS011;16364;52.490;13.326;2022-10-31T10:50:57;25.83;;;17.90;;
29380;SDS011;16364;52.490;13.326;2022-10-31T10:55:58;32.60;;;20.17;;
29380;SDS011;16364;52.490;13.326;2022-10-31T10:58:24;27.20;;;20.03;;
29380;SDS011;16364;52.490;13.326;2022-10-31T11:00:50;29.00;;;19.70;;
29380;SDS011;16364;52.490;13.326;2022-10-31T11:03:16;35.27;;;19.93;;
29380;SDS011;16364;52.490;13.326;2022-10-31T11:05:43;34.00;;;20.23;;
29380;SDS011;16364;52.490;13.326;2022-10-31T11:08:10;33.13;;;21.50;;
29380;SDS011;16364;52.490;13.326;2022-10-31T11:10:35;28.33;;;22.00;;
29380;SDS011;16364;52.490;13.326;2022-10-31T11:15:30;26.20;;;18.30;;
29380;SDS011;16364;52.490;13.326;2022-10-31T11:17:56;30.73;;;21.87;;
29380;SDS011;16364;52.490;13.326;2022-10-31T11:20:29;35.03;;;19.70;;
29380;SDS011;16364;52.490;13.326;2022-10-31T11:25:39;26.90;;;19.33;;
29380;SDS011;16364;52.490;13.326;2022-10-31T11:28:12;30.63;;;19.93;;
29380;SDS011;16364;52.490;13.326;2022-10-31T11:30:47;35.72;;;22.08;;
29380;SDS011;16364;52.490;13.326;2022-10-31T11:33:16;29.37;;;21.93;;
29380;SDS011;16364;52.490;13.326;2022-10-31T11:35:42;32.37;;;21.33;;
29380;SDS011;16364;52.490;13.326;2022-10-31T11:38:07;28.60;;;20.20;;
29380;SDS011;16364;52.490;13.326;2022-10-31T11:40:32;24.23;;;17.83;;
29380;SDS011;16364;52.490;13.326;2022-10-31T11:42:58;33.10;;;20.03;;
29380;SDS011;16364;52.490;13.326;2022-10-31T11:45:28;30.10;;;22.13;;
29380;SDS011;16364;52.490;13.326;2022-10-31T11:47:54;35.30;;;21.50;;
29380;SDS011;16364;52.490;13.326;2022-10-31T11:50:21;24.43;;;18.00;;
29380;SDS011;16364;52.490;13.326;2022-10-31T11:52:47;31.93;;;21.67;;
29380;SDS011;16364;52.490;13.326;2022-10-31T11:58:18;28.93;;;19.43;;
29380;SDS011;16364;52.490;13.326;2022-10-31T12:00:30;27.30;;;16.90;;
29380;SDS011;16364;52.490;13.326;2022-10-31T12:05:40;26.33;;;19.60;;
29380;SDS011;16364;52.490;13.326;2022-10-31T12:08:09;28.77;;;20.27;;
29380;SDS011;16364;52.490;13.326;2022-10-31T12:13:32;26.40;;;18.17;;
29380;SDS011;16364;52.490;13.326;2022-10-31T12:16:00;34.90;;;19.90;;
29380;SDS011;16364;52.490;13.326;2022-10-31T12:18:29;21.20;;;15.53;;
29380;SDS011;16364;52.490;13.326;2022-10-31T12:36:00;20.43;;;13.40;;
29380;SDS011;16364;52.490;13.326;2022-10-31T12:38:47;16.77;;;12.60;;
29380;SDS011;16364;52.490;13.326;2022-10-31T12:51:24;23.93;;;16.10;;
29380;SDS011;16364;52.490;13.326;2022-10-31T12:56:42;19.33;;;14.03;;
29380;SDS011;16364;52.490;13.326;2022-10-31T13:01:45;12.80;;;10.90;;
29380;SDS011;16364;52.490;13.326;2022-10-31T13:04:15;23.90;;;16.20;;
29380;SDS011;16364;52.490;13.326;2022-10-31T13:06:49;19.03;;;14.50;;
29380;SDS011;16364;52.490;13.326;2022-10-31T13:09:17;19.33;;;14.80;;
29380;SDS011;16364;52.490;13.326;2022-10-31T13:11:44;21.10;;;17.30;;
29380;SDS011;16364;52.490;13.326;2022-10-31T13:16:53;13.10;;;9.40;;
29380;SDS011;16364;52.490;13.326;2022-10-31T13:21:58;21.30;;;13.63;;
29380;SDS011;16364;52.490;13.326;2022-10-31T13:24:28;23.40;;;15.40;;
29380;SDS011;16364;52.490;13.326;2022-10-31T13:26:56;19.23;;;14.93;;
29380;SDS011;16364;52.490;13.326;2022-10-31T13:32:06;24.80;;;14.47;;
29380;SDS011;16364;52.490;13.326;2022-10-31T13:34:47;12.73;;;10.90;;
29380;SDS011;16364;52.490;13.326;2022-10-31T13:40:07;21.73;;;16.70;;
29380;SDS011;16364;52.490;13.326;2022-10-31T13:42:49;28.60;;;15.73;;
29380;SDS011;16364;52.490;13.326;2022-10-31T13:45:17;15.37;;;11.90;;
29380;SDS011;16364;52.490;13.326;2022-10-31T13:47:42;21.07;;;14.27;;
29380;SDS011;16364;52.490;13.326;2022-10-31T13:50:41;23.50;;;18.10;;
29380;SDS011;16364;52.490;13.326;2022-10-31T13:53:08;25.43;;;15.23;;
29380;SDS011;16364;52.490;13.326;2022-10-31T13:55:42;32.80;;;22.03;;
29380;SDS011;16364;52.490;13.326;2022-10-31T14:00:45;30.60;;;19.80;;
29380;SDS011;16364;52.490;13.326;2022-10-31T14:03:17;27.20;;;18.17;;
29380;SDS011;16364;52.490;13.326;2022-10-31T14:05:43;32.10;;;22.20;;
29380;SDS011;16364;52.490;13.326;2022-10-31T14:08:18;28.83;;;21.13;;
29380;SDS011;16364;52.490;13.326;2022-10-31T14:10:47;29.47;;;19.37;;
29380;SDS011;16364;52.490;13.326;2022-10-31T14:15:57;33.20;;;20.50;;
29380;SDS011;16364;52.490;13.326;2022-10-31T14:18:24;27.43;;;19.97;;
29380;SDS011;16364;52.490;13.326;2022-10-31T14:20:50;34.73;;;23.00;;
29380;SDS011;16364;52.490;13.326;2022-10-31T14:26:17;37.43;;;25.40;;
29380;SDS011;16364;52.490;13.326;2022-10-31T14:28:42;33.80;;;25.93;;
29380;SDS011;16364;52.490;13.326;2022-10-31T14:33:52;35.77;;;25.37;;
29380;SDS011;16364;52.490;13.326;2022-10-31T14:36:19;46.33;;;30.83;;
29380;SDS011;16364;52.490;13.326;2022-10-31T14:41:25;44.90;;;30.17;;
29380;SDS011;16364;52.490;13.326;2022-10-31T14:51:27;38.87;;;25.77;;
29380;SDS011;16364;52.490;13.326;2022-10-31T14:53:56;46.97;;;32.40;;
29380;SDS011;16364;52.490;13.326;2022-10-31T14:58:47;46.65;;;29.38;;
29380;SDS011;16364;52.490;13.326;2022-10-31T15:01:21;44.13;;;31.67;;
29380;SDS011;16364;52.490;13.326;2022-10-31T15:03:47;50.43;;;29.27;;
29380;SDS011;16364;52.490;13.326;2022-10-31T15:06:13;43.70;;;28.30;;
29380;SDS011;16364;52.490;13.326;2022-10-31T15:08:43;43.93;;;29.47;;
29380;SDS011;16364;52.490;13.326;2022-10-31T15:11:15;48.00;;;31.10;;
29380;SDS011;16364;52.490;13.326;2022-10-31T15:13:50;46.07;;;28.47;;
29380;SDS011;16364;52.490;13.326;2022-10-31T15:16:18;45.93;;;30.37;;
29380;SDS011;16364;52.490;13.326;2022-10-31T15:18:54;55.83;;;32.60;;
29380;SDS011;16364;52.490;13.326;2022-10-31T15:21:20;55.27;;;31.70;;
29380;SDS011;16364;52.490;13.326;2022-10-31T15:23:46;57.40;;;33.90;;
29380;SDS011;16364;52.490;13.326;2022-10-31T15:26:17;48.20;;;32.00;;
29380;SDS011;16364;52.490;13.326;2022-10-31T15:28:42;62.63;;;33.23;;
29380;SDS011;16364;52.490;13.326;2022-10-31T15:31:14;60.17;;;35.00;;
29380;SDS011;16364;52.490;13.326;2022-10-31T15:33:41;59.33;;;33.83;;
29380;SDS011;16364;52.490;13.326;2022-10-31T15:36:16;59.50;;;34.37;;
29380;SDS011;16364;52.490;13.326;2022-10-31T15:38:42;65.47;;;35.43;;
29380;SDS011;16364;52.490;13.326;2022-10-31T15:41:18;61.80;;;34.90;;
29380;SDS011;16364;52.490;13.326;2022-10-31T15:43:45;59.93;;;36.40;;
29380;SDS011;16364;52.490;13.326;2022-10-31T15:46:11;69.17;;;37.00;;
29380;SDS011;16364;52.490;13.326;2022-10-31T15:48:36;54.90;;;35.57;;
29380;SDS011;16364;52.490;13.326;2022-10-31T15:51:03;64.57;;;35.73;;
29380;SDS011;16364;52.490;13.326;2022-10-31T15:53:33;67.03;;;35.77;;
29380;SDS011;16364;52.490;13.326;2022-10-31T15:56:06;65.47;;;38.97;;
29380;SDS011;16364;52.490;13.326;2022-10-31T15:58:32;66.27;;;35.23;;
29380;SDS011;16364;52.490;13.326;2022-10-31T16:01:02;68.73;;;38.57;;
29380;SDS011;16364;52.490;13.326;2022-10-31T16:03:29;66.43;;;37.07;;
29380;SDS011;16364;52.490;13.326;2022-10-31T16:05:55;58.00;;;32.57;;
29380;SDS011;16364;52.490;13.326;2022-10-31T16:08:25;61.00;;;34.13;;
29380;SDS011;16364;52.490;13.326;2022-10-31T16:10:51;52.63;;;33.23;;
29380;SDS011;16364;52.490;13.326;2022-10-31T16:13:16;58.50;;;33.70;;
29380;SDS011;16364;52.490;13.326;2022-10-31T16:15:58;59.17;;;35.53;;
29380;SDS011;16364;52.490;13.326;2022-10-31T16:18:25;64.43;;;33.70;;
29380;SDS011;16364;52.490;13.326;2022-10-31T16:20:52;67.20;;;35.23;;
29380;SDS011;16364;52.490;13.326;2022-10-31T16:23:20;64.60;;;36.10;;
29380;SDS011;16364;52.490;13.326;2022-10-31T16:25:45;65.37;;;35.07;;
29380;SDS011;16364;52.490;13.326;2022-10-31T16:28:24;70.10;;;37.03;;
29380;SDS011;16364;52.490;13.326;2022-10-31T16:30:50;77.77;;;39.23;;